This is the latest recevied weather packets stored in our database for station/object KK7KHO. If no packets are shown the sender has not sent any weather packets the latest 10 day(s).
| Time | Temp. | Humidity | Pressure | Rain* | Wind** | Luminosity | Snow |
|---|---|---|---|---|---|---|---|
| 1777585477 | 21.11° C | 64% | 1017.7 hPa | 0 mm | - | 547 W/m² | - |
| 1777585173 | 21.11° C | 65% | 1017.7 hPa | 0 mm | - | 571 W/m² | - |
| 1777584869 | 21.11° C | 65% | 1017.7 hPa | 0 mm | - | 648 W/m² | - |
| 1777584567 | 21.67° C | 64% | 1017.6 hPa | 0 mm | - | 666 W/m² | - |
| 1777584263 | 20.56° C | 65% | 1017.6 hPa | 0 mm | - | 661 W/m² | - |
| 1777583963 | 20.56° C | 66% | 1017.7 hPa | 0 mm | - | 654 W/m² | - |
| 1777583658 | 20.56° C | 66% | 1017.7 hPa | 0 mm | - | 669 W/m² | - |
| 1777583357 | 20.56° C | 66% | 1018 hPa | 0 mm | - | 668 W/m² | - |
| 1777583052 | 20.56° C | 67% | 1018 hPa | 0 mm | - | 643 W/m² | - |
| 1777582749 | 20° C | 66% | 1018 hPa | 0 mm | - | 575 W/m² | - |
| 1777582445 | 20.56° C | 65% | 1018 hPa | 0 mm | - | 601 W/m² | - |
| 1777582145 | 20.56° C | 67% | 1017.8 hPa | 0 mm | - | 645 W/m² | - |
| 1777581844 | 20.56° C | 68% | 1018.1 hPa | 0 mm | - | 606 W/m² | - |
| 1777581543 | 20.56° C | 66% | 1017.9 hPa | 0 mm | - | 680 W/m² | - |
| 1777581239 | 21.11° C | 64% | 1018.2 hPa | 0 mm | - | 756 W/m² | - |
| 1777580939 | 20° C | 68% | 1018.2 hPa | 0 mm | - | 685 W/m² | - |
| 1777580633 | 20.56° C | 67% | 1018.2 hPa | 0 mm | - | 604 W/m² | - |
| 1777580329 | 20° C | 68% | 1018.2 hPa | 0 mm | - | 687 W/m² | - |
| 1777580026 | 18.89° C | 70% | 1018.3 hPa | 0 mm | - | 517 W/m² | - |
| 1777579722 | 19.44° C | 69% | 1018.5 hPa | 0 mm | - | 499 W/m² | - |
| 1777579414 | 19.44° C | 69% | 1018.3 hPa | 0 mm | - | 354 W/m² | - |
| 1777579109 | 20° C | 68% | 1018.5 hPa | 0 mm | - | 296 W/m² | - |
| 1777578804 | 20° C | 67% | 1018.5 hPa | 0 mm | - | 484 W/m² | - |
| 1777578499 | 20° C | 67% | 1018.6 hPa | 0 mm | - | 648 W/m² | - |
| 1777578194 | 20° C | 69% | 1018.8 hPa | 0 mm | - | 622 W/m² | - |
* Rain latest hour (hover to see other rain measurements)
** Current wind speed in m/s (hover to see current wind gust speed)